sensor_id;sensor_type;location;lat;lon;timestamp;pressure;altitude;pressure_sealevel;temperature;humidity
49813;BME280;35706;52.100;5.056;2022-08-21T00:00:15;101735.38;;;19.19;61.82
49813;BME280;35706;52.100;5.056;2022-08-21T00:03:06;101741.53;;;19.20;62.32
49813;BME280;35706;52.100;5.056;2022-08-21T00:05:52;101731.63;;;18.97;62.93
49813;BME280;35706;52.100;5.056;2022-08-21T00:08:38;101729.91;;;19.04;62.80
49813;BME280;35706;52.100;5.056;2022-08-21T00:11:24;101736.78;;;18.90;63.39
49813;BME280;35706;52.100;5.056;2022-08-21T00:14:12;101721.41;;;19.09;62.94
49813;BME280;35706;52.100;5.056;2022-08-21T00:16:59;101731.09;;;19.10;62.83
49813;BME280;35706;52.100;5.056;2022-08-21T00:19:45;101732.94;;;18.93;63.48
49813;BME280;35706;52.100;5.056;2022-08-21T00:22:31;101723.81;;;18.79;64.09
49813;BME280;35706;52.100;5.056;2022-08-21T00:25:18;101716.63;;;18.88;63.93
49813;BME280;35706;52.100;5.056;2022-08-21T00:28:05;101725.09;;;19.00;63.35
49813;BME280;35706;52.100;5.056;2022-08-21T00:30:51;101718.94;;;19.07;62.91
49813;BME280;35706;52.100;5.056;2022-08-21T00:33:38;101718.78;;;19.01;62.87
49813;BME280;35706;52.100;5.056;2022-08-21T00:36:23;101719.13;;;18.89;63.90
49813;BME280;35706;52.100;5.056;2022-08-21T00:39:09;101718.00;;;18.84;63.98
49813;BME280;35706;52.100;5.056;2022-08-21T00:41:55;101711.69;;;18.52;64.83
49813;BME280;35706;52.100;5.056;2022-08-21T00:44:46;101711.31;;;18.30;65.30
49813;BME280;35706;52.100;5.056;2022-08-21T00:47:32;101715.31;;;18.02;66.44
49813;BME280;35706;52.100;5.056;2022-08-21T00:50:18;101714.16;;;18.13;65.79
49813;BME280;35706;52.100;5.056;2022-08-21T00:53:06;101708.94;;;17.95;66.98
49813;BME280;35706;52.100;5.056;2022-08-21T00:55:53;101712.00;;;18.16;65.93
49813;BME280;35706;52.100;5.056;2022-08-21T00:58:41;101712.53;;;17.77;67.37
49813;BME280;35706;52.100;5.056;2022-08-21T01:01:28;101716.72;;;17.72;68.13
49813;BME280;35706;52.100;5.056;2022-08-21T01:04:14;101712.16;;;18.39;65.59
49813;BME280;35706;52.100;5.056;2022-08-21T01:07:03;101705.34;;;18.12;66.64
49813;BME280;35706;52.100;5.056;2022-08-21T01:09:49;101704.88;;;18.33;65.65
49813;BME280;35706;52.100;5.056;2022-08-21T01:12:35;101703.00;;;18.17;66.29
49813;BME280;35706;52.100;5.056;2022-08-21T01:15:23;101710.66;;;18.28;65.72
49813;BME280;35706;52.100;5.056;2022-08-21T01:17:50;101710.50;;;18.38;65.53
49813;BME280;35706;52.100;5.056;2022-08-21T01:20:16;101713.81;;;18.16;66.36
49813;BME280;35706;52.100;5.056;2022-08-21T01:22:42;101708.00;;;18.28;65.82
49813;BME280;35706;52.100;5.056;2022-08-21T01:25:09;101714.66;;;18.08;66.98
49813;BME280;35706;52.100;5.056;2022-08-21T01:27:34;101718.66;;;18.45;65.45
49813;BME280;35706;52.100;5.056;2022-08-21T01:30:11;101714.63;;;17.92;67.20
49813;BME280;35706;52.100;5.056;2022-08-21T01:32:37;101718.47;;;18.22;66.61
49813;BME280;35706;52.100;5.056;2022-08-21T01:35:04;101713.66;;;18.34;65.84
49813;BME280;35706;52.100;5.056;2022-08-21T01:37:29;101709.69;;;18.38;65.57
49813;BME280;35706;52.100;5.056;2022-08-21T01:39:55;101722.28;;;18.11;66.62
49813;BME280;35706;52.100;5.056;2022-08-21T01:42:20;101708.31;;;18.09;66.57
49813;BME280;35706;52.100;5.056;2022-08-21T01:44:45;101709.66;;;18.13;66.54
49813;BME280;35706;52.100;5.056;2022-08-21T01:47:12;101718.25;;;17.82;67.84
49813;BME280;35706;52.100;5.056;2022-08-21T01:49:39;101711.97;;;18.00;67.29
49813;BME280;35706;52.100;5.056;2022-08-21T01:52:05;101705.97;;;17.89;67.56
49813;BME280;35706;52.100;5.056;2022-08-21T01:54:31;101707.84;;;17.63;68.53
49813;BME280;35706;52.100;5.056;2022-08-21T01:56:58;101712.25;;;17.38;70.18
49813;BME280;35706;52.100;5.056;2022-08-21T01:59:24;101702.19;;;17.58;69.30
49813;BME280;35706;52.100;5.056;2022-08-21T02:01:50;101690.09;;;17.80;68.98
49813;BME280;35706;52.100;5.056;2022-08-21T02:04:16;101694.34;;;17.99;68.07
49813;BME280;35706;52.100;5.056;2022-08-21T02:06:42;101697.84;;;17.48;69.65
49813;BME280;35706;52.100;5.056;2022-08-21T02:09:09;101696.22;;;17.64;69.17
49813;BME280;35706;52.100;5.056;2022-08-21T02:11:35;101692.91;;;17.62;69.40
49813;BME280;35706;52.100;5.056;2022-08-21T02:14:01;101693.00;;;17.36;70.53
49813;BME280;35706;52.100;5.056;2022-08-21T02:16:27;101691.91;;;17.71;69.77
49813;BME280;35706;52.100;5.056;2022-08-21T02:18:52;101695.59;;;17.70;69.25
49813;BME280;35706;52.100;5.056;2022-08-21T02:21:17;101694.16;;;17.92;68.43
49813;BME280;35706;52.100;5.056;2022-08-21T02:23:43;101687.56;;;18.21;67.42
49813;BME280;35706;52.100;5.056;2022-08-21T02:26:09;101683.22;;;18.03;68.00
49813;BME280;35706;52.100;5.056;2022-08-21T02:28:35;101686.69;;;17.87;68.93
49813;BME280;35706;52.100;5.056;2022-08-21T02:31:01;101679.75;;;17.60;69.67
49813;BME280;35706;52.100;5.056;2022-08-21T02:33:27;101678.53;;;18.05;67.85
49813;BME280;35706;52.100;5.056;2022-08-21T02:35:53;101678.38;;;17.99;68.39
49813;BME280;35706;52.100;5.056;2022-08-21T02:38:22;101677.88;;;17.95;68.25
49813;BME280;35706;52.100;5.056;2022-08-21T02:40:50;101678.38;;;17.99;68.47
49813;BME280;35706;52.100;5.056;2022-08-21T02:43:16;101677.63;;;17.64;69.97
49813;BME280;35706;52.100;5.056;2022-08-21T02:45:43;101673.97;;;17.73;69.67
49813;BME280;35706;52.100;5.056;2022-08-21T02:48:11;101672.97;;;17.66;69.99
49813;BME280;35706;52.100;5.056;2022-08-21T02:50:50;101678.13;;;17.76;69.65
49813;BME280;35706;52.100;5.056;2022-08-21T02:53:16;101679.78;;;17.68;69.76
49813;BME280;35706;52.100;5.056;2022-08-21T02:55:44;101679.06;;;17.07;71.87
49813;BME280;35706;52.100;5.056;2022-08-21T02:58:10;101674.28;;;17.11;72.14
49813;BME280;35706;52.100;5.056;2022-08-21T03:00:36;101669.31;;;17.16;71.77
49813;BME280;35706;52.100;5.056;2022-08-21T03:03:02;101666.22;;;17.37;70.98
49813;BME280;35706;52.100;5.056;2022-08-21T03:05:29;101664.59;;;17.36;70.96
49813;BME280;35706;52.100;5.056;2022-08-21T03:07:57;101666.97;;;17.56;70.38
49813;BME280;35706;52.100;5.056;2022-08-21T03:10:23;101661.88;;;17.28;71.36
49813;BME280;35706;52.100;5.056;2022-08-21T03:12:50;101664.66;;;17.53;70.32
49813;BME280;35706;52.100;5.056;2022-08-21T03:15:18;101659.22;;;17.28;71.38
49813;BME280;35706;52.100;5.056;2022-08-21T03:17:44;101660.16;;;17.11;72.24
49813;BME280;35706;52.100;5.056;2022-08-21T03:20:10;101650.28;;;17.37;71.06
49813;BME280;35706;52.100;5.056;2022-08-21T03:22:36;101649.56;;;17.19;71.65
49813;BME280;35706;52.100;5.056;2022-08-21T03:25:02;101656.91;;;16.91;72.76
49813;BME280;35706;52.100;5.056;2022-08-21T03:27:29;101655.25;;;16.89;73.09
49813;BME280;35706;52.100;5.056;2022-08-21T03:29:56;101644.63;;;17.32;71.26
49813;BME280;35706;52.100;5.056;2022-08-21T03:32:22;101642.88;;;17.06;72.04
49813;BME280;35706;52.100;5.056;2022-08-21T03:34:47;101651.63;;;16.99;72.33
49813;BME280;35706;52.100;5.056;2022-08-21T03:37:14;101649.34;;;17.04;72.30
49813;BME280;35706;52.100;5.056;2022-08-21T03:39:43;101653.75;;;16.95;73.01
49813;BME280;35706;52.100;5.056;2022-08-21T03:42:10;101646.94;;;17.27;71.46
49813;BME280;35706;52.100;5.056;2022-08-21T03:44:35;101647.75;;;17.19;71.89
49813;BME280;35706;52.100;5.056;2022-08-21T03:47:01;101641.66;;;17.35;71.34
49813;BME280;35706;52.100;5.056;2022-08-21T03:49:27;101636.34;;;17.35;71.44
49813;BME280;35706;52.100;5.056;2022-08-21T03:51:53;101639.00;;;17.35;71.34
49813;BME280;35706;52.100;5.056;2022-08-21T03:54:18;101634.56;;;17.52;71.13
49813;BME280;35706;52.100;5.056;2022-08-21T03:56:44;101633.03;;;17.41;71.02
49813;BME280;35706;52.100;5.056;2022-08-21T03:59:09;101636.16;;;17.28;72.40
49813;BME280;35706;52.100;5.056;2022-08-21T04:01:35;101643.97;;;17.30;71.46
49813;BME280;35706;52.100;5.056;2022-08-21T04:04:01;101632.03;;;17.34;71.94
49813;BME280;35706;52.100;5.056;2022-08-21T04:06:26;101635.19;;;17.38;71.70
49813;BME280;35706;52.100;5.056;2022-08-21T04:08:53;101625.09;;;17.58;70.73
49813;BME280;35706;52.100;5.056;2022-08-21T04:11:19;101642.53;;;17.52;71.29
49813;BME280;35706;52.100;5.056;2022-08-21T04:13:44;101641.28;;;17.22;72.48
49813;BME280;35706;52.100;5.056;2022-08-21T04:16:10;101644.72;;;17.06;72.90
49813;BME280;35706;52.100;5.056;2022-08-21T04:18:35;101646.84;;;17.02;73.48
49813;BME280;35706;52.100;5.056;2022-08-21T04:21:02;101646.47;;;16.97;73.47
49813;BME280;35706;52.100;5.056;2022-08-21T04:23:28;101652.19;;;17.11;73.41
49813;BME280;35706;52.100;5.056;2022-08-21T04:25:55;101653.59;;;17.31;71.59
49813;BME280;35706;52.100;5.056;2022-08-21T04:28:22;101653.59;;;17.31;71.74
49813;BME280;35706;52.100;5.056;2022-08-21T04:30:48;101656.22;;;17.23;72.38
49813;BME280;35706;52.100;5.056;2022-08-21T04:33:14;101659.56;;;16.91;74.04
49813;BME280;35706;52.100;5.056;2022-08-21T04:35:40;101659.53;;;16.64;75.23
49813;BME280;35706;52.100;5.056;2022-08-21T04:38:07;101655.88;;;16.65;75.38
49813;BME280;35706;52.100;5.056;2022-08-21T04:40:32;101660.00;;;16.60;75.52
49813;BME280;35706;52.100;5.056;2022-08-21T04:43:01;101657.31;;;16.52;75.77
49813;BME280;35706;52.100;5.056;2022-08-21T04:47:56;101666.50;;;16.83;74.48
49813;BME280;35706;52.100;5.056;2022-08-21T04:50:28;101664.53;;;16.41;76.20
49813;BME280;35706;52.100;5.056;2022-08-21T04:52:55;101674.41;;;16.57;75.63
49813;BME280;35706;52.100;5.056;2022-08-21T04:55:21;101662.88;;;16.40;75.89
49813;BME280;35706;52.100;5.056;2022-08-21T04:57:48;101668.50;;;16.19;77.22
49813;BME280;35706;52.100;5.056;2022-08-21T05:00:19;101672.56;;;16.32;76.65
49813;BME280;35706;52.100;5.056;2022-08-21T05:02:45;101676.66;;;16.08;77.58
49813;BME280;35706;52.100;5.056;2022-08-21T05:05:13;101677.03;;;16.49;76.25
49813;BME280;35706;52.100;5.056;2022-08-21T05:07:39;101678.94;;;16.39;76.45
49813;BME280;35706;52.100;5.056;2022-08-21T05:10:05;101675.59;;;16.37;76.43
49813;BME280;35706;52.100;5.056;2022-08-21T05:12:32;101675.63;;;16.01;78.08
49813;BME280;35706;52.100;5.056;2022-08-21T05:14:58;101681.16;;;15.90;78.72
49813;BME280;35706;52.100;5.056;2022-08-21T05:17:23;101690.94;;;16.07;78.09
49813;BME280;35706;52.100;5.056;2022-08-21T05:19:49;101687.00;;;16.11;78.12
49813;BME280;35706;52.100;5.056;2022-08-21T05:22:24;101676.84;;;16.51;76.51
49813;BME280;35706;52.100;5.056;2022-08-21T05:24:49;101679.97;;;16.46;76.40
49813;BME280;35706;52.100;5.056;2022-08-21T05:27:15;101681.44;;;16.22;77.39
49813;BME280;35706;52.100;5.056;2022-08-21T05:29:40;101690.09;;;16.24;77.67
49813;BME280;35706;52.100;5.056;2022-08-21T05:32:11;101684.41;;;16.19;77.95
49813;BME280;35706;52.100;5.056;2022-08-21T05:34:37;101690.97;;;16.33;77.12
49813;BME280;35706;52.100;5.056;2022-08-21T05:37:02;101694.72;;;16.22;77.71
49813;BME280;35706;52.100;5.056;2022-08-21T05:39:28;101689.00;;;16.35;77.13
49813;BME280;35706;52.100;5.056;2022-08-21T05:41:53;101691.25;;;16.48;76.56
49813;BME280;35706;52.100;5.056;2022-08-21T05:44:18;101696.00;;;16.36;77.43
49813;BME280;35706;52.100;5.056;2022-08-21T05:46:44;101692.66;;;16.16;78.17
49813;BME280;35706;52.100;5.056;2022-08-21T05:49:10;101690.09;;;16.24;78.04
49813;BME280;35706;52.100;5.056;2022-08-21T05:51:36;101694.31;;;16.35;78.07
49813;BME280;35706;52.100;5.056;2022-08-21T05:54:01;101695.03;;;16.19;78.69
49813;BME280;35706;52.100;5.056;2022-08-21T05:56:26;101692.28;;;16.29;78.45
49813;BME280;35706;52.100;5.056;2022-08-21T05:58:52;101687.88;;;16.38;78.40
49813;BME280;35706;52.100;5.056;2022-08-21T06:01:17;101688.19;;;16.35;78.03
49813;BME280;35706;52.100;5.056;2022-08-21T06:03:42;101680.69;;;16.30;79.15
49813;BME280;35706;52.100;5.056;2022-08-21T06:06:08;101686.28;;;16.45;78.37
49813;BME280;35706;52.100;5.056;2022-08-21T06:08:35;101686.97;;;16.47;78.69
49813;BME280;35706;52.100;5.056;2022-08-21T06:11:01;101681.06;;;16.35;79.39
49813;BME280;35706;52.100;5.056;2022-08-21T06:13:28;101678.59;;;16.60;78.45
49813;BME280;35706;52.100;5.056;2022-08-21T06:16:11;101680.34;;;16.51;78.97
49813;BME280;35706;52.100;5.056;2022-08-21T06:18:38;101689.91;;;16.44;79.27
49813;BME280;35706;52.100;5.056;2022-08-21T06:21:04;101682.75;;;16.62;78.54
49813;BME280;35706;52.100;5.056;2022-08-21T06:23:29;101692.78;;;16.51;79.39
49813;BME280;35706;52.100;5.056;2022-08-21T06:25:55;101683.91;;;16.42;80.23
49813;BME280;35706;52.100;5.056;2022-08-21T06:28:20;101683.63;;;16.71;79.17
49813;BME280;35706;52.100;5.056;2022-08-21T06:30:45;101674.91;;;16.79;78.51
49813;BME280;35706;52.100;5.056;2022-08-21T06:33:11;101686.22;;;16.81;78.59
49813;BME280;35706;52.100;5.056;2022-08-21T06:35:36;101682.06;;;16.60;80.00
49813;BME280;35706;52.100;5.056;2022-08-21T06:38:02;101685.38;;;16.80;79.16
49813;BME280;35706;52.100;5.056;2022-08-21T06:40:28;101687.25;;;16.88;79.30
49813;BME280;35706;52.100;5.056;2022-08-21T06:42:54;101685.44;;;16.88;79.48
49813;BME280;35706;52.100;5.056;2022-08-21T06:45:19;101686.31;;;16.97;79.11
49813;BME280;35706;52.100;5.056;2022-08-21T06:47:45;101671.72;;;17.36;77.43
49813;BME280;35706;52.100;5.056;2022-08-21T06:50:10;101673.38;;;17.37;77.72
49813;BME280;35706;52.100;5.056;2022-08-21T06:52:36;101673.50;;;17.27;78.77
49813;BME280;35706;52.100;5.056;2022-08-21T06:55:04;101678.72;;;17.45;78.20
49813;BME280;35706;52.100;5.056;2022-08-21T06:57:29;101676.44;;;17.16;79.69
49813;BME280;35706;52.100;5.056;2022-08-21T06:59:55;101670.16;;;17.25;79.54
49813;BME280;35706;52.100;5.056;2022-08-21T07:02:20;101673.06;;;17.48;78.42
49813;BME280;35706;52.100;5.056;2022-08-21T07:04:45;101674.28;;;17.54;78.63
49813;BME280;35706;52.100;5.056;2022-08-21T07:07:11;101670.16;;;17.76;77.52
49813;BME280;35706;52.100;5.056;2022-08-21T07:09:36;101673.13;;;17.64;78.51
49813;BME280;35706;52.100;5.056;2022-08-21T07:12:02;101681.16;;;17.81;78.12
49813;BME280;35706;52.100;5.056;2022-08-21T07:14:27;101673.66;;;17.76;78.59
49813;BME280;35706;52.100;5.056;2022-08-21T07:16:53;101680.38;;;17.97;77.74
49813;BME280;35706;52.100;5.056;2022-08-21T07:19:18;101676.38;;;18.01;77.45
49813;BME280;35706;52.100;5.056;2022-08-21T07:21:44;101678.19;;;17.92;78.18
49813;BME280;35706;52.100;5.056;2022-08-21T07:24:10;101679.72;;;17.86;78.59
49813;BME280;35706;52.100;5.056;2022-08-21T07:26:35;101675.72;;;17.99;77.71
49813;BME280;35706;52.100;5.056;2022-08-21T07:29:01;101680.91;;;18.17;77.76
49813;BME280;35706;52.100;5.056;2022-08-21T07:31:28;101685.22;;;18.42;76.46
49813;BME280;35706;52.100;5.056;2022-08-21T07:33:53;101682.72;;;18.33;77.25
49813;BME280;35706;52.100;5.056;2022-08-21T07:36:19;101686.53;;;18.22;77.76
49813;BME280;35706;52.100;5.056;2022-08-21T07:38:45;101691.72;;;18.31;77.48
49813;BME280;35706;52.100;5.056;2022-08-21T07:41:17;101695.38;;;18.14;78.37
49813;BME280;35706;52.100;5.056;2022-08-21T07:43:44;101690.03;;;18.30;77.90
49813;BME280;35706;52.100;5.056;2022-08-21T07:46:09;101684.72;;;18.55;76.80
49813;BME280;35706;52.100;5.056;2022-08-21T07:48:35;101699.34;;;18.76;76.00
49813;BME280;35706;52.100;5.056;2022-08-21T07:51:04;101702.50;;;18.63;76.76
49813;BME280;35706;52.100;5.056;2022-08-21T07:53:30;101692.50;;;18.89;75.57
49813;BME280;35706;52.100;5.056;2022-08-21T07:55:59;101684.19;;;18.92;76.09
49813;BME280;35706;52.100;5.056;2022-08-21T07:58:24;101681.69;;;18.83;76.23
49813;BME280;35706;52.100;5.056;2022-08-21T08:00:50;101678.06;;;18.51;77.97
49813;BME280;35706;52.100;5.056;2022-08-21T08:03:15;101682.03;;;18.63;77.60
49813;BME280;35706;52.100;5.056;2022-08-21T08:05:40;101681.88;;;18.65;77.40
49813;BME280;35706;52.100;5.056;2022-08-21T08:08:06;101676.34;;;18.75;77.52
49813;BME280;35706;52.100;5.056;2022-08-21T08:10:31;101677.69;;;18.70;77.40
49813;BME280;35706;52.100;5.056;2022-08-21T08:12:57;101683.69;;;18.89;76.36
49813;BME280;35706;52.100;5.056;2022-08-21T08:15:24;101691.00;;;18.95;76.27
49813;BME280;35706;52.100;5.056;2022-08-21T08:17:51;101679.09;;;19.22;75.68
49813;BME280;35706;52.100;5.056;2022-08-21T08:20:17;101681.75;;;19.22;75.30
49813;BME280;35706;52.100;5.056;2022-08-21T08:22:43;101680.22;;;19.28;75.58
49813;BME280;35706;52.100;5.056;2022-08-21T08:25:13;101684.84;;;19.34;74.97
49813;BME280;35706;52.100;5.056;2022-08-21T08:27:39;101679.81;;;19.47;75.37
49813;BME280;35706;52.100;5.056;2022-08-21T08:30:07;101678.03;;;19.71;74.13
49813;BME280;35706;52.100;5.056;2022-08-21T08:32:33;101682.47;;;19.79;73.78
49813;BME280;35706;52.100;5.056;2022-08-21T08:34:58;101681.00;;;19.68;73.44
49813;BME280;35706;52.100;5.056;2022-08-21T08:37:24;101678.00;;;19.40;74.59
49813;BME280;35706;52.100;5.056;2022-08-21T08:39:49;101673.16;;;19.43;74.74
49813;BME280;35706;52.100;5.056;2022-08-21T08:44:46;101677.19;;;19.39;74.90
49813;BME280;35706;52.100;5.056;2022-08-21T08:47:15;101665.91;;;19.60;74.25
49813;BME280;35706;52.100;5.056;2022-08-21T08:50:05;101665.91;;;19.60;74.34
49813;BME280;35706;52.100;5.056;2022-08-21T08:52:35;101662.16;;;19.78;74.15
49813;BME280;35706;52.100;5.056;2022-08-21T08:55:09;101659.84;;;19.98;73.20
49813;BME280;35706;52.100;5.056;2022-08-21T08:57:37;101656.50;;;20.19;71.92
49813;BME280;35706;52.100;5.056;2022-08-21T09:00:09;101662.56;;;20.12;72.95
49813;BME280;35706;52.100;5.056;2022-08-21T09:02:38;101666.09;;;19.90;72.27
49813;BME280;35706;52.100;5.056;2022-08-21T09:05:04;101661.69;;;19.97;72.49
49813;BME280;35706;52.100;5.056;2022-08-21T09:13:24;101652.41;;;20.08;72.07
49813;BME280;35706;52.100;5.056;2022-08-21T09:16:13;101656.06;;;20.15;71.33
49813;BME280;35706;52.100;5.056;2022-08-21T09:18:51;101645.84;;;20.33;70.89
49813;BME280;35706;52.100;5.056;2022-08-21T09:21:28;101659.75;;;20.67;69.74
49813;BME280;35706;52.100;5.056;2022-08-21T09:26:36;101658.13;;;20.81;68.65
49813;BME280;35706;52.100;5.056;2022-08-21T09:29:06;101668.16;;;20.64;66.45
49813;BME280;35706;52.100;5.056;2022-08-21T09:31:36;101668.38;;;20.54;68.43
49813;BME280;35706;52.100;5.056;2022-08-21T09:34:07;101671.22;;;20.52;68.48
49813;BME280;35706;52.100;5.056;2022-08-21T09:36:47;101675.56;;;20.53;68.28
49813;BME280;35706;52.100;5.056;2022-08-21T09:39:27;101669.41;;;20.68;68.14
49813;BME280;35706;52.100;5.056;2022-08-21T09:42:06;101657.00;;;20.60;67.33
49813;BME280;35706;52.100;5.056;2022-08-21T09:44:35;101652.56;;;20.67;67.95
49813;BME280;35706;52.100;5.056;2022-08-21T09:47:05;101652.94;;;20.64;67.30
49813;BME280;35706;52.100;5.056;2022-08-21T09:49:35;101649.25;;;20.65;66.56
49813;BME280;35706;52.100;5.056;2022-08-21T09:52:03;101646.03;;;20.70;65.57
49813;BME280;35706;52.100;5.056;2022-08-21T09:54:31;101654.59;;;20.95;64.40
49813;BME280;35706;52.100;5.056;2022-08-21T10:00:08;101666.97;;;21.11;62.86
49813;BME280;35706;52.100;5.056;2022-08-21T10:02:35;101668.69;;;20.89;63.06
49813;BME280;35706;52.100;5.056;2022-08-21T10:05:16;101664.47;;;20.94;64.38
49813;BME280;35706;52.100;5.056;2022-08-21T10:07:42;101662.34;;;20.90;64.47
49813;BME280;35706;52.100;5.056;2022-08-21T10:12:48;101654.06;;;21.00;63.79
49813;BME280;35706;52.100;5.056;2022-08-21T10:15:45;101645.91;;;21.23;61.95
49813;BME280;35706;52.100;5.056;2022-08-21T10:18:22;101642.94;;;21.32;60.57
49813;BME280;35706;52.100;5.056;2022-08-21T10:23:54;101647.72;;;21.37;63.09
49813;BME280;35706;52.100;5.056;2022-08-21T10:29:09;101633.28;;;21.89;61.06
49813;BME280;35706;52.100;5.056;2022-08-21T10:31:54;101638.13;;;21.79;58.78
49813;BME280;35706;52.100;5.056;2022-08-21T10:37:29;101630.22;;;22.14;57.70
49813;BME280;35706;52.100;5.056;2022-08-21T10:40:15;101624.59;;;22.09;57.79
49813;BME280;35706;52.100;5.056;2022-08-21T10:46:13;101636.19;;;22.16;58.04
49813;BME280;35706;52.100;5.056;2022-08-21T10:48:56;101637.88;;;21.95;58.92
49813;BME280;35706;52.100;5.056;2022-08-21T10:51:31;101638.59;;;21.83;59.48
49813;BME280;35706;52.100;5.056;2022-08-21T10:54:24;101631.25;;;21.70;59.80
49813;BME280;35706;52.100;5.056;2022-08-21T10:57:00;101637.66;;;21.54;60.07
49813;BME280;35706;52.100;5.056;2022-08-21T10:59:48;101630.97;;;21.65;60.14
49813;BME280;35706;52.100;5.056;2022-08-21T11:02:37;101631.66;;;21.52;60.23
49813;BME280;35706;52.100;5.056;2022-08-21T11:05:14;101632.13;;;21.55;60.48
49813;BME280;35706;52.100;5.056;2022-08-21T11:10:39;101637.25;;;21.72;60.40
49813;BME280;35706;52.100;5.056;2022-08-21T11:13:15;101628.06;;;21.60;59.45
49813;BME280;35706;52.100;5.056;2022-08-21T11:16:22;101631.25;;;21.48;60.74
49813;BME280;35706;52.100;5.056;2022-08-21T11:18:39;101635.97;;;21.68;60.94
49813;BME280;35706;52.100;5.056;2022-08-21T11:23:47;101637.13;;;22.23;59.10
49813;BME280;35706;52.100;5.056;2022-08-21T11:26:22;101637.97;;;22.30;58.46
49813;BME280;35706;52.100;5.056;2022-08-21T11:28:57;101645.00;;;22.10;58.82
49813;BME280;35706;52.100;5.056;2022-08-21T11:31:47;101638.25;;;22.14;57.72
49813;BME280;35706;52.100;5.056;2022-08-21T11:37:24;101638.63;;;22.61;56.51
49813;BME280;35706;52.100;5.056;2022-08-21T11:40:04;101641.72;;;22.64;55.95
49813;BME280;35706;52.100;5.056;2022-08-21T11:45:49;101639.50;;;22.40;55.10
49813;BME280;35706;52.100;5.056;2022-08-21T11:50:56;101647.19;;;22.77;54.23
49813;BME280;35706;52.100;5.056;2022-08-21T11:53:33;101649.88;;;22.84;53.26
49813;BME280;35706;52.100;5.056;2022-08-21T11:56:06;101654.63;;;22.82;53.58
49813;BME280;35706;52.100;5.056;2022-08-21T11:58:41;101646.19;;;22.50;54.68
49813;BME280;35706;52.100;5.056;2022-08-21T12:01:19;101640.50;;;22.39;55.64
49813;BME280;35706;52.100;5.056;2022-08-21T12:06:37;101640.38;;;22.47;55.67
49813;BME280;35706;52.100;5.056;2022-08-21T12:09:06;101628.72;;;22.61;54.85
49813;BME280;35706;52.100;5.056;2022-08-21T12:11:46;101646.13;;;22.79;54.13
49813;BME280;35706;52.100;5.056;2022-08-21T12:14:14;101645.28;;;22.71;55.66
49813;BME280;35706;52.100;5.056;2022-08-21T12:16:47;101649.88;;;22.49;56.97
49813;BME280;35706;52.100;5.056;2022-08-21T12:19:29;101652.69;;;22.41;57.32
49813;BME280;35706;52.100;5.056;2022-08-21T12:26:56;101645.97;;;22.24;57.59
49813;BME280;35706;52.100;5.056;2022-08-21T12:29:30;101650.09;;;22.26;57.66
49813;BME280;35706;52.100;5.056;2022-08-21T12:34:48;101645.88;;;22.17;57.80
49813;BME280;35706;52.100;5.056;2022-08-21T12:37:21;101646.25;;;22.64;56.75
49813;BME280;35706;52.100;5.056;2022-08-21T12:39:52;101648.25;;;22.90;55.25
49813;BME280;35706;52.100;5.056;2022-08-21T12:42:31;101654.56;;;23.10;54.32
49813;BME280;35706;52.100;5.056;2022-08-21T12:45:03;101657.53;;;23.22;53.87
49813;BME280;35706;52.100;5.056;2022-08-21T12:47:51;101661.41;;;23.20;53.15
49813;BME280;35706;52.100;5.056;2022-08-21T12:50:26;101658.31;;;23.16;53.71
49813;BME280;35706;52.100;5.056;2022-08-21T12:53:10;101651.66;;;22.70;54.53
49813;BME280;35706;52.100;5.056;2022-08-21T12:55:41;101660.47;;;22.64;55.35
49813;BME280;35706;52.100;5.056;2022-08-21T12:58:17;101660.13;;;22.74;55.31
49813;BME280;35706;52.100;5.056;2022-08-21T13:00:48;101656.63;;;22.73;54.93
49813;BME280;35706;52.100;5.056;2022-08-21T13:03:15;101658.31;;;22.81;54.64
49813;BME280;35706;52.100;5.056;2022-08-21T13:05:40;101658.91;;;22.76;54.91
49813;BME280;35706;52.100;5.056;2022-08-21T13:08:08;101653.56;;;22.83;53.96
49813;BME280;35706;52.100;5.056;2022-08-21T13:10:36;101658.09;;;22.76;53.33
49813;BME280;35706;52.100;5.056;2022-08-21T13:13:06;101665.84;;;22.64;54.10
49813;BME280;35706;52.100;5.056;2022-08-21T13:15:35;101664.78;;;22.59;54.85
49813;BME280;35706;52.100;5.056;2022-08-21T13:18:05;101670.69;;;22.54;55.09
49813;BME280;35706;52.100;5.056;2022-08-21T13:20:40;101667.38;;;22.52;54.75
49813;BME280;35706;52.100;5.056;2022-08-21T13:23:26;101663.69;;;22.53;55.24
49813;BME280;35706;52.100;5.056;2022-08-21T13:25:53;101665.19;;;22.62;54.71
49813;BME280;35706;52.100;5.056;2022-08-21T13:28:19;101654.97;;;22.72;54.29
49813;BME280;35706;52.100;5.056;2022-08-21T13:30:48;101658.31;;;23.16;53.31
49813;BME280;35706;52.100;5.056;2022-08-21T13:33:16;101656.78;;;23.48;51.88
49813;BME280;35706;52.100;5.056;2022-08-21T13:38:25;101664.69;;;23.15;52.06
49813;BME280;35706;52.100;5.056;2022-08-21T13:40:55;101659.09;;;23.03;52.56
49813;BME280;35706;52.100;5.056;2022-08-21T13:43:27;101665.75;;;22.86;52.56
49813;BME280;35706;52.100;5.056;2022-08-21T13:45:55;101656.06;;;22.85;52.38
49813;BME280;35706;52.100;5.056;2022-08-21T13:48:27;101660.81;;;22.83;52.10
49813;BME280;35706;52.100;5.056;2022-08-21T13:50:54;101653.03;;;22.94;51.88
49813;BME280;35706;52.100;5.056;2022-08-21T13:55:54;101648.06;;;23.26;50.38
49813;BME280;35706;52.100;5.056;2022-08-21T13:58:33;101647.03;;;23.34;48.87
49813;BME280;35706;52.100;5.056;2022-08-21T14:01:06;101642.63;;;23.20;48.12
49813;BME280;35706;52.100;5.056;2022-08-21T14:03:45;101643.06;;;23.16;49.27
49813;BME280;35706;52.100;5.056;2022-08-21T14:06:26;101645.75;;;23.16;49.33
49813;BME280;35706;52.100;5.056;2022-08-21T14:09:03;101658.06;;;23.04;48.51